createdAt,value
2022-11-25T00:02:59.200Z,100.00
2022-11-25T00:08:00.905Z,100.00
2022-11-25T00:13:02.562Z,100.00
2022-11-25T00:18:04.221Z,100.00
2022-11-25T00:23:05.773Z,100.00
2022-11-25T00:28:07.338Z,100.00
2022-11-25T00:33:08.903Z,100.00
2022-11-25T00:38:10.473Z,100.00
2022-11-25T00:43:30.665Z,100.00
2022-11-25T00:48:32.222Z,100.00
2022-11-25T00:53:33.778Z,100.00
2022-11-25T00:58:35.344Z,100.00
2022-11-25T01:03:37.249Z,100.00
2022-11-25T01:08:39.003Z,100.00
2022-11-25T01:13:40.563Z,100.00
2022-11-25T01:18:42.828Z,100.00
2022-11-25T01:23:44.630Z,100.00
2022-11-25T01:28:48.231Z,100.00
2022-11-25T01:33:59.889Z,100.00
2022-11-25T01:39:01.556Z,100.00
2022-11-25T01:44:05.631Z,100.00
2022-11-25T01:49:10.692Z,100.00
2022-11-25T01:54:14.341Z,100.00
2022-11-25T01:59:16.322Z,100.00
2022-11-25T02:04:19.449Z,100.00
2022-11-25T02:09:22.583Z,100.00
2022-11-25T02:14:25.484Z,100.00
2022-11-25T02:19:45.798Z,100.00
2022-11-25T02:24:48.954Z,100.00
2022-11-25T02:29:50.695Z,100.00
2022-11-25T02:34:52.265Z,100.00
2022-11-25T02:39:54.888Z,100.00
2022-11-25T02:44:56.774Z,100.00
2022-11-25T02:49:59.086Z,100.00
2022-11-25T02:55:00.671Z,100.00
2022-11-25T03:00:02.602Z,100.00
2022-11-25T03:05:05.073Z,100.00
2022-11-25T03:10:07.070Z,100.00
2022-11-25T03:15:10.316Z,100.00
2022-11-25T03:20:15.222Z,100.00
2022-11-25T03:25:17.538Z,100.00
2022-11-25T03:30:22.988Z,100.00
2022-11-25T03:35:27.804Z,100.00
2022-11-25T03:40:29.416Z,100.00
2022-11-25T03:45:31.056Z,100.00
2022-11-25T03:50:35.058Z,100.00
2022-11-25T03:55:36.690Z,100.00
2022-11-25T04:00:39.304Z,100.00
2022-11-25T04:05:41.622Z,100.00
2022-11-25T04:10:43.244Z,100.00
2022-11-25T04:15:47.226Z,100.00
2022-11-25T04:20:50.746Z,100.00
2022-11-25T04:25:52.591Z,100.00
2022-11-25T04:31:00.092Z,100.00
2022-11-25T04:36:02.796Z,99.96
2022-11-25T04:41:04.497Z,99.48
2022-11-25T04:46:16.769Z,100.00
2022-11-25T04:51:22.459Z,100.00
2022-11-25T04:56:28.071Z,100.00
2022-11-25T05:01:31.006Z,100.00
2022-11-25T05:06:42.984Z,99.97
2022-11-25T05:11:45.007Z,99.73
2022-11-25T05:16:46.719Z,99.91
2022-11-25T05:21:48.556Z,100.00
2022-11-25T05:26:50.269Z,100.00
2022-11-25T05:31:51.898Z,100.00
2022-11-25T05:36:53.781Z,100.00
2022-11-25T05:41:55.848Z,100.00
2022-11-25T05:46:57.523Z,100.00
2022-11-25T05:52:01.114Z,100.00
2022-11-25T05:57:06.899Z,99.99
2022-11-25T06:02:16.441Z,100.00
2022-11-25T06:07:18.192Z,100.00
2022-11-25T06:12:22.797Z,100.00
2022-11-25T06:17:24.454Z,99.88
2022-11-25T06:22:34.899Z,98.83
2022-11-25T06:28:04.475Z,98.96
2022-11-25T06:32:58.265Z,98.27
2022-11-25T06:38:00.028Z,97.86
2022-11-25T06:43:01.607Z,97.60
2022-11-25T06:48:03.395Z,97.77
2022-11-25T06:53:04.940Z,96.93
2022-11-25T06:58:28.331Z,98.21
2022-11-25T07:03:28.103Z,97.23
2022-11-25T07:08:33.904Z,97.88
2022-11-25T07:13:36.101Z,98.17
2022-11-25T07:18:38.603Z,97.84
2022-11-25T07:23:41.283Z,98.40
2022-11-25T07:28:43.609Z,98.51
2022-11-25T07:33:45.779Z,97.47
2022-11-25T07:38:47.820Z,97.34
2022-11-25T07:43:55.399Z,97.44
2022-11-25T07:49:06.345Z,96.65
2022-11-25T07:54:11.148Z,96.56
2022-11-25T07:59:15.172Z,97.68
2022-11-25T08:04:20.432Z,97.31
2022-11-25T08:09:24.006Z,97.12
2022-11-25T08:14:26.525Z,96.11
2022-11-25T08:19:31.430Z,96.34
2022-11-25T08:24:33.209Z,95.69
2022-11-25T08:29:35.280Z,95.92
2022-11-25T08:34:37.181Z,96.34
2022-11-25T08:39:55.666Z,96.81
2022-11-25T08:44:57.835Z,95.61
2022-11-25T08:49:59.672Z,96.13
2022-11-25T08:55:01.322Z,95.27
2022-11-25T09:00:05.772Z,95.96
2022-11-25T09:05:07.684Z,95.35
2022-11-25T09:10:12.654Z,96.35
2022-11-25T09:15:14.230Z,95.45
2022-11-25T09:20:15.867Z,95.60
2022-11-25T09:25:17.455Z,94.64
2022-11-25T09:30:19.130Z,94.31
2022-11-25T09:35:21.249Z,95.65
2022-11-25T09:40:54.092Z,94.95
2022-11-25T09:46:42.640Z,95.08
2022-11-25T09:52:10.531Z,94.55
2022-11-25T09:57:24.100Z,95.33
2022-11-25T10:02:35.516Z,94.51
2022-11-25T10:07:41.418Z,93.71
2022-11-25T10:12:45.345Z,93.25
2022-11-25T10:17:53.269Z,93.33
2022-11-25T10:22:57.856Z,92.83
2022-11-25T10:28:05.974Z,92.56
2022-11-25T10:33:33.463Z,93.47
2022-11-25T10:38:45.450Z,93.37
2022-11-25T10:43:47.693Z,92.48
2022-11-25T10:49:35.280Z,91.57
2022-11-25T10:54:36.889Z,91.34
2022-11-25T10:59:40.056Z,90.21
2022-11-25T11:05:10.383Z,90.84
2022-11-25T11:10:14.988Z,90.79
2022-11-25T11:15:23.660Z,90.80
2022-11-25T11:20:29.470Z,90.43
2022-11-25T11:25:33.853Z,90.16
2022-11-25T11:30:35.425Z,90.26
2022-11-25T11:35:55.065Z,90.28
2022-11-25T11:41:16.552Z,91.17
2022-11-25T11:46:47.322Z,91.04
2022-11-25T11:52:10.817Z,90.60
2022-11-25T11:57:27.454Z,90.01
2022-11-25T12:02:32.241Z,89.82
2022-11-25T12:08:07.955Z,89.74
2022-11-25T12:13:35.235Z,89.70
2022-11-25T12:19:09.088Z,90.12
2022-11-25T12:24:27.346Z,89.50
2022-11-25T12:29:53.999Z,89.78
2022-11-25T12:35:19.005Z,89.86
2022-11-25T12:40:27.034Z,89.81
2022-11-25T12:45:28.764Z,90.28
2022-11-25T12:50:35.795Z,89.81
2022-11-25T12:55:39.556Z,89.80
2022-11-25T13:00:42.735Z,89.10
2022-11-25T13:06:10.661Z,89.53
2022-11-25T13:11:12.592Z,89.38
2022-11-25T13:16:14.905Z,88.93
2022-11-25T13:21:18.500Z,88.87
2022-11-25T13:26:33.952Z,89.03
2022-11-25T13:31:59.420Z,89.51
2022-11-25T13:37:12.596Z,89.44
2022-11-25T13:42:21.501Z,89.41
2022-11-25T13:47:33.061Z,89.67
2022-11-25T13:52:38.231Z,89.49
2022-11-25T13:57:40.766Z,89.71
2022-11-25T14:02:47.044Z,89.75
2022-11-25T14:08:10.527Z,88.84
2022-11-25T14:13:20.985Z,88.48
2022-11-25T14:24:31.150Z,87.97
2022-11-25T14:29:32.628Z,87.52
2022-11-25T14:34:39.878Z,87.57
2022-11-25T14:39:49.441Z,88.26
2022-11-25T14:44:53.170Z,87.69
2022-11-25T14:50:18.978Z,86.30
2022-11-25T14:55:27.377Z,86.15
2022-11-25T15:00:28.909Z,86.13
2022-11-25T15:05:34.971Z,86.80
2022-11-25T15:10:40.441Z,86.94
2022-11-25T15:15:45.134Z,87.63
2022-11-25T15:20:48.958Z,87.63
2022-11-25T15:25:52.274Z,86.68
2022-11-25T15:31:01.168Z,86.85
2022-11-25T15:36:03.016Z,87.94
2022-11-25T15:41:06.160Z,88.36
2022-11-25T15:46:08.901Z,88.29
2022-11-25T15:51:38.649Z,88.09
2022-11-25T15:56:45.881Z,87.57
2022-11-25T16:01:47.609Z,88.29
2022-11-25T16:06:53.818Z,88.53
2022-11-25T16:12:04.776Z,88.40
2022-11-25T16:17:10.888Z,88.50
2022-11-25T16:22:16.496Z,88.36
2022-11-25T16:27:28.281Z,88.22
2022-11-25T16:32:31.359Z,88.36
2022-11-25T16:37:32.944Z,88.38
2022-11-25T16:42:34.527Z,88.35
2022-11-25T16:47:36.119Z,88.01
2022-11-25T16:52:37.716Z,87.60
2022-11-25T16:57:40.722Z,87.84
2022-11-25T17:02:42.519Z,87.68
2022-11-25T17:07:44.288Z,88.51
2022-11-25T17:12:46.690Z,88.53
2022-11-25T17:17:48.729Z,89.23
2022-11-25T17:22:51.597Z,89.35
2022-11-25T17:27:53.897Z,89.99
2022-11-25T17:33:04.168Z,90.03
2022-11-25T17:38:20.428Z,91.62
2022-11-25T17:43:22.130Z,91.41
2022-11-25T17:48:24.073Z,90.43
2022-11-25T17:53:25.597Z,91.31
2022-11-25T17:58:27.146Z,92.57
2022-11-25T18:03:28.694Z,92.56
2022-11-25T18:08:30.279Z,92.70
2022-11-25T18:13:36.384Z,93.18
2022-11-25T18:18:38.218Z,92.88
2022-11-25T18:23:39.783Z,92.81
2022-11-25T18:28:41.388Z,91.78
2022-11-25T18:33:43.310Z,92.14
2022-11-25T18:38:45.537Z,92.85
2022-11-25T18:43:47.226Z,92.00
2022-11-25T18:48:48.780Z,91.98
2022-11-25T18:53:50.337Z,92.17
2022-11-25T18:58:51.977Z,92.62
2022-11-25T19:03:55.280Z,93.46
2022-11-25T19:08:56.847Z,93.56
2022-11-25T19:14:03.687Z,95.04
2022-11-25T19:19:05.362Z,94.66
2022-11-25T19:24:12.941Z,95.93
2022-11-25T19:29:23.695Z,95.14
2022-11-25T19:34:38.325Z,95.98
2022-11-25T19:39:40.095Z,96.54
2022-11-25T19:44:42.669Z,96.11
2022-11-25T19:49:44.611Z,96.94
2022-11-25T19:54:46.377Z,96.17
2022-11-25T19:59:48.312Z,95.81
2022-11-25T20:04:53.696Z,96.74
2022-11-25T20:10:14.666Z,97.55
2022-11-25T20:15:16.705Z,98.68
2022-11-25T20:20:31.783Z,97.89
2022-11-25T20:25:41.633Z,97.85
2022-11-25T20:30:43.287Z,97.84
2022-11-25T20:35:46.701Z,97.81
2022-11-25T20:40:50.293Z,98.16
2022-11-25T20:45:51.869Z,97.85
2022-11-25T20:50:53.696Z,97.58
2022-11-25T20:55:55.510Z,98.86
2022-11-25T21:00:58.080Z,97.96
2022-11-25T21:06:00.106Z,98.39
2022-11-25T21:11:01.855Z,100.00
2022-11-25T21:16:03.515Z,100.00
2022-11-25T21:21:14.818Z,100.00
2022-11-25T21:26:24.031Z,100.00
2022-11-25T21:31:26.324Z,100.00
2022-11-25T21:36:29.622Z,100.00
2022-11-25T21:41:31.296Z,100.00
2022-11-25T21:46:33.124Z,100.00
2022-11-25T21:51:34.727Z,100.00
2022-11-25T21:56:37.652Z,100.00
2022-11-25T22:01:39.337Z,100.00
2022-11-25T22:06:41.009Z,100.00
2022-11-25T22:11:47.926Z,100.00
2022-11-25T22:16:49.703Z,100.00
2022-11-25T22:21:51.332Z,100.00
2022-11-25T22:26:57.704Z,100.00
2022-11-25T22:31:59.866Z,100.00
2022-11-25T22:37:01.573Z,100.00
2022-11-25T22:42:06.826Z,100.00
2022-11-25T22:47:38.359Z,100.00
2022-11-25T22:52:39.948Z,100.00
2022-11-25T22:57:41.540Z,100.00
2022-11-25T23:02:43.123Z,100.00
2022-11-25T23:07:44.771Z,100.00
2022-11-25T23:12:46.812Z,100.00
2022-11-25T23:17:49.763Z,100.00
2022-11-25T23:22:51.344Z,100.00
2022-11-25T23:27:53.050Z,100.00
2022-11-25T23:32:54.667Z,100.00
2022-11-25T23:37:57.369Z,100.00
2022-11-25T23:42:58.997Z,100.00
2022-11-25T23:48:00.579Z,100.00
2022-11-25T23:53:05.298Z,100.00
2022-11-25T23:58:14.586Z,100.00
